Time;durP1;ratioP1;P1;durP2;ratioP2;P2;SDS_P1;SDS_P2;PMS_P1;PMS_P2;Temp;Humidity;BMP_temperature;BMP_pressure;BME280_temperature;BME280_humidity;BME280_pressure;Samples;Min_cycle;Max_cycle;Signal;HPM_P1;HPM_P2
2022/07/14 00:00:17;;;;;;;4.00;1.10;;;;;;;15.16;85.21;98768.61;104954;1277;22690;-64
2022/07/14 00:02:44;;;;;;;3.70;1.00;;;;;;;15.14;85.06;98767.05;104835;1278;138937;-64
2022/07/14 00:05:10;;;;;;;2.10;0.90;;;;;;;15.16;85.06;98769.33;105034;1278;23266;-64
2022/07/14 00:07:37;;;;;;;3.70;1.10;;;;;;;15.15;84.97;98769.94;106600;1277;139327;-64
2022/07/14 00:10:05;;;;;;;5.10;1.40;;;;;;;15.16;84.98;98775.85;107504;1276;23579;-63
2022/07/14 00:12:32;;;;;;;11.50;1.80;;;;;;;15.15;84.94;98772.05;105984;1277;139074;-64
2022/07/14 00:14:59;;;;;;;2.10;1.00;;;;;;;15.14;84.99;98780.02;105087;1277;22609;-63
2022/07/14 00:17:26;;;;;;;2.90;1.10;;;;;;;15.14;84.96;98777.17;105043;1278;26540;-64
2022/07/14 00:19:53;;;;;;;1.80;0.90;;;;;;;15.13;84.92;98781.05;104899;1277;138393;-64
2022/07/14 00:22:19;;;;;;;2.00;0.90;;;;;;;15.13;84.93;98783.95;104893;1276;22667;-65
2022/07/14 00:24:53;;;;;;;2.80;1.20;;;;;;;15.12;85.02;98782.70;104738;1277;138399;-64
2022/07/14 00:27:20;;;;;;;6.20;1.10;;;;;;;15.12;85.16;98788.14;104985;1277;25458;-64
2022/07/14 00:29:46;;;;;;;1.60;1.00;;;;;;;15.12;85.21;98786.23;104928;1276;22578;-64
2022/07/14 00:32:13;;;;;;;1.10;1.00;;;;;;;15.11;85.31;98785.59;104789;1278;138656;-65
2022/07/14 00:34:41;;;;;;;1.40;1.10;;;;;;;15.09;85.60;98788.41;104862;1277;24137;-65
2022/07/14 00:37:10;;;;;;;3.30;1.10;;;;;;;15.09;85.65;98786.34;105560;1277;138304;-65
2022/07/14 00:39:55;;;;;;;2.80;1.10;;;;;;;15.07;85.85;98785.39;104735;1277;25276;-65
2022/07/14 00:42:26;;;;;;;4.10;1.40;;;;;;;15.06;86.00;98788.63;104837;1278;138513;-65
2022/07/14 00:44:53;;;;;;;7.10;0.90;;;;;;;15.05;86.13;98787.13;104928;1277;26154;-65
2022/07/14 00:47:20;;;;;;;1.50;1.00;;;;;;;15.03;86.16;98787.75;104730;1277;24238;-65
2022/07/14 00:49:47;;;;;;;2.80;0.80;;;;;;;15.01;86.22;98786.05;104745;1277;139491;-65
2022/07/14 00:52:13;;;;;;;4.20;1.20;;;;;;;14.99;86.37;98790.83;104676;1278;22933;-64
2022/07/14 00:54:40;;;;;;;1.10;1.10;;;;;;;14.95;86.41;98784.80;104899;1277;138181;-64
2022/07/14 00:57:07;;;;;;;1.20;1.10;;;;;;;14.96;86.51;98788.41;104901;1277;22702;-64
2022/07/14 00:59:34;;;;;;;5.00;1.20;;;;;;;14.94;86.52;98789.59;104877;1278;22643;-63
2022/07/14 01:02:01;;;;;;;3.30;1.10;;;;;;;14.93;86.53;98789.73;104898;1278;139200;-64
2022/07/14 01:04:28;;;;;;;4.50;0.90;;;;;;;14.90;86.33;98790.77;104870;1278;22604;-63
2022/07/14 01:06:54;;;;;;;4.30;1.10;;;;;;;14.84;86.27;98786.43;104793;1277;139994;-63
2022/07/14 01:09:22;;;;;;;1.70;1.00;;;;;;;14.84;86.35;98795.77;104923;1278;25346;-63
2022/07/14 01:11:49;;;;;;;3.50;1.10;;;;;;;14.82;86.32;98796.86;104924;1277;24236;-63
2022/07/14 01:14:17;;;;;;;1.10;1.00;;;;;;;14.79;86.36;98794.98;104760;1278;138085;-63
2022/07/14 01:16:43;;;;;;;2.50;1.10;;;;;;;14.79;86.48;98800.52;104968;1277;22756;-63
2022/07/14 01:19:10;;;;;;;2.20;1.30;;;;;;;14.78;86.58;98802.30;104857;1277;138987;-63
2022/07/14 01:21:37;;;;;;;1.20;0.90;;;;;;;14.77;86.60;98801.44;104764;1277;23848;-64
2022/07/14 01:24:04;;;;;;;4.90;1.10;;;;;;;14.77;86.59;98806.98;104953;1278;24293;-64
2022/07/14 01:26:31;;;;;;;1.00;0.90;;;;;;;14.76;86.64;98803.20;104779;1278;138302;-64
2022/07/14 01:28:57;;;;;;;2.80;1.10;;;;;;;14.77;86.69;98809.34;104878;1278;22668;-65
2022/07/14 01:31:24;;;;;;;1.70;1.00;;;;;;;14.76;86.58;98812.85;104727;1277;138954;-63
2022/07/14 01:33:51;;;;;;;2.40;1.00;;;;;;;14.75;86.52;98816.54;104967;1277;25474;-63
2022/07/14 01:36:18;;;;;;;4.00;1.10;;;;;;;14.75;86.59;98813.86;104925;1277;22909;-63
2022/07/14 01:38:46;;;;;;;1.10;0.90;;;;;;;14.74;86.57;98814.05;104857;1277;22559;-64
2022/07/14 01:41:14;;;;;;;1.50;0.90;;;;;;;14.74;86.60;98814.04;104852;1278;25449;-63
2022/07/14 01:43:41;;;;;;;1.20;1.10;;;;;;;14.74;86.49;98814.75;104659;1277;138084;-64
2022/07/14 01:46:08;;;;;;;1.80;0.90;;;;;;;14.74;86.45;98816.52;104980;1277;26038;-63
2022/07/14 01:48:36;;;;;;;4.60;1.10;;;;;;;14.75;86.37;98816.50;109096;1276;139215;-63
2022/07/14 01:51:02;;;;;;;1.80;1.20;;;;;;;14.75;86.42;98821.76;109272;1277;22398;-64
2022/07/14 01:53:30;;;;;;;5.00;1.30;;;;;;;14.75;86.37;98817.98;109201;1276;22549;-64
2022/07/14 01:55:58;;;;;;;3.60;1.10;;;;;;;14.75;86.29;98826.15;109115;1277;138946;-64
2022/07/14 01:58:25;;;;;;;1.50;1.30;;;;;;;14.74;86.23;98824.73;109194;1277;22960;-64
2022/07/14 02:03:39;;;;;;;1.60;1.50;;;;;;;14.72;85.97;98835.30;109142;1277;23529;-63
2022/07/14 02:06:06;;;;;;;1.20;1.10;;;;;;;14.71;86.05;98843.17;109176;1277;22347;-63
2022/07/14 02:08:33;;;;;;;1.70;0.90;;;;;;;14.71;86.05;98841.44;109162;1276;138264;-64
2022/07/14 02:13:45;;;;;;;1.70;1.10;;;;;;;14.69;86.07;98850.57;109167;1275;138437;-63
2022/07/14 02:16:12;;;;;;;1.60;0.90;;;;;;;14.69;86.08;98847.02;109253;1277;22432;-64
2022/07/14 02:18:39;;;;;;;0.90;0.80;;;;;;;14.69;86.02;98856.77;109039;1277;140108;-64
2022/07/14 02:21:05;;;;;;;1.30;0.90;;;;;;;14.68;86.11;98851.46;109248;1276;22466;-64
2022/07/14 02:23:33;;;;;;;3.50;1.10;;;;;;;14.69;86.24;98853.42;109231;1277;22425;-64
2022/07/14 02:26:01;;;;;;;3.60;1.20;;;;;;;14.70;86.28;98850.44;109057;1277;138416;-64
2022/07/14 02:28:28;;;;;;;3.10;1.10;;;;;;;14.72;86.24;98854.80;109264;1276;22544;-64
2022/07/14 02:30:55;;;;;;;4.20;1.20;;;;;;;14.73;86.04;98859.31;109125;1277;141051;-64
2022/07/14 02:33:22;;;;;;;3.30;1.20;;;;;;;14.72;85.99;98859.37;109322;1277;22469;-64
2022/07/14 02:35:50;;;;;;;1.00;0.90;;;;;;;14.71;86.04;98860.12;109243;1276;22457;-64
2022/07/14 02:38:17;;;;;;;3.00;1.20;;;;;;;14.72;86.12;98863.51;109156;1277;138298;-64
2022/07/14 02:40:45;;;;;;;2.80;0.90;;;;;;;14.71;86.13;98873.27;109213;1277;22477;-64
2022/07/14 02:43:12;;;;;;;0.90;0.90;;;;;;;14.74;86.33;98870.80;109216;1276;138628;-64
2022/07/14 02:45:39;;;;;;;2.00;1.30;;;;;;;14.75;86.22;98879.46;109230;1277;22449;-64
2022/07/14 02:48:06;;;;;;;2.30;1.20;;;;;;;14.76;86.25;98881.42;109223;1277;23442;-64
2022/07/14 02:50:33;;;;;;;1.20;1.10;;;;;;;14.76;86.23;98884.76;109129;1277;138769;-64
2022/07/14 02:53:00;;;;;;;5.70;1.00;;;;;;;14.76;86.22;98883.60;109278;1275;22542;-65
2022/07/14 02:55:30;;;;;;;1.20;1.10;;;;;;;14.77;86.18;98886.99;108909;1277;139754;-65
2022/07/14 02:57:57;;;;;;;1.60;1.10;;;;;;;14.76;86.16;98885.63;109268;1276;23618;-63
2022/07/14 03:00:24;;;;;;;5.90;1.30;;;;;;;14.76;86.04;98892.06;109075;1275;140356;-64
2022/07/14 03:02:51;;;;;;;4.00;1.10;;;;;;;14.76;86.08;98895.79;109217;1274;22468;-65
2022/07/14 03:05:18;;;;;;;1.50;1.00;;;;;;;14.77;86.16;98895.45;109347;1274;22466;-64
2022/07/14 03:07:45;;;;;;;2.70;1.20;;;;;;;14.77;86.02;98892.38;109157;1274;139180;-64
2022/07/14 03:10:12;;;;;;;3.80;1.20;;;;;;;14.76;85.89;98893.05;109288;1274;22469;-64
2022/07/14 03:12:45;;;;;;;5.70;1.20;;;;;;;14.76;85.93;98890.36;109176;1274;138308;-64
2022/07/14 03:15:11;;;;;;;3.60;1.20;;;;;;;14.75;85.84;98893.67;109302;1274;23261;-65
2022/07/14 03:17:39;;;;;;;2.60;1.20;;;;;;;14.72;85.75;98900.56;109267;1274;23222;-65
2022/07/14 03:20:07;;;;;;;1.30;1.10;;;;;;;14.71;85.79;98907.09;109183;1274;139281;-65
2022/07/14 03:22:34;;;;;;;3.70;1.20;;;;;;;14.69;85.74;98913.96;109314;1274;22522;-65
2022/07/14 03:25:08;;;;;;;1.40;1.00;;;;;;;14.68;85.93;98919.40;109137;1274;139373;-65
2022/07/14 03:27:38;;;;;;;1.40;1.30;;;;;;;14.68;85.95;98923.23;109271;1274;22440;-65
2022/07/14 03:30:06;;;;;;;3.40;1.20;;;;;;;14.69;85.87;98927.29;109096;1274;22442;-65
2022/07/14 03:32:32;;;;;;;6.20;1.30;;;;;;;14.69;85.81;98929.98;109077;1274;138233;-64
2022/07/14 03:34:59;;;;;;;5.60;1.40;;;;;;;14.71;85.98;98936.37;109259;1275;22478;-65
2022/07/14 03:37:26;;;;;;;4.10;1.40;;;;;;;14.70;85.84;98934.91;109140;1277;139958;-64
2022/07/14 03:39:56;;;;;;;2.20;1.40;;;;;;;14.70;85.81;98935.08;109278;1275;22408;-64
2022/07/14 03:42:23;;;;;;;7.30;1.10;;;;;;;14.70;85.72;98941.49;109187;1274;139323;-64
2022/07/14 03:44:50;;;;;;;5.80;1.20;;;;;;;14.70;85.71;98942.30;109261;1274;22438;-64
2022/07/14 03:47:17;;;;;;;4.00;1.30;;;;;;;14.70;85.60;98944.49;109267;1274;23321;-64
2022/07/14 03:49:44;;;;;;;1.90;1.20;;;;;;;14.69;85.47;98946.70;109098;1274;138762;-64
2022/07/14 03:52:17;;;;;;;4.10;1.50;;;;;;;14.69;85.41;98949.67;109292;1274;22608;-64
2022/07/14 03:54:45;;;;;;;4.00;1.50;;;;;;;14.68;85.47;98943.70;109157;1274;139299;-64
2022/07/14 03:57:12;;;;;;;2.10;1.20;;;;;;;14.69;85.29;98945.16;109050;1276;22409;-64
2022/07/14 03:59:40;;;;;;;1.90;1.40;;;;;;;14.69;85.20;98945.12;109262;1274;22436;-64
2022/07/14 04:02:11;;;;;;;2.50;1.10;;;;;;;14.67;85.05;98940.86;109052;1274;138051;-64
2022/07/14 04:04:39;;;;;;;2.50;1.30;;;;;;;14.68;85.26;98950.02;109239;1276;22438;-64
2022/07/14 04:07:07;;;;;;;1.50;1.20;;;;;;;14.71;85.27;98952.05;109101;1274;139720;-64
2022/07/14 04:09:34;;;;;;;1.20;1.10;;;;;;;14.74;85.22;98950.89;109269;1274;22887;-65
2022/07/14 04:12:01;;;;;;;3.60;1.30;;;;;;;14.78;85.48;98954.92;109180;1274;22255;-64
2022/07/14 04:14:28;;;;;;;5.10;1.40;;;;;;;14.83;85.33;98956.90;109121;1274;138229;-64
2022/07/14 04:16:56;;;;;;;1.70;1.20;;;;;;;14.86;85.04;98951.56;109254;1274;22311;-64
2022/07/14 04:19:23;;;;;;;2.70;1.50;;;;;;;14.90;84.93;98954.46;109189;1274;139824;-64
2022/07/14 04:21:50;;;;;;;1.90;1.40;;;;;;;14.96;84.97;98957.44;109188;1277;23186;-64
2022/07/14 04:24:38;;;;;;;2.20;1.30;;;;;;;15.03;84.85;98963.95;109042;1274;140644;-64
2022/07/14 04:27:05;;;;;;;3.00;1.50;;;;;;;15.08;84.78;98969.84;109187;1274;22442;-65
2022/07/14 04:29:32;;;;;;;3.80;1.70;;;;;;;15.13;84.64;98969.33;109381;1274;22536;-65
2022/07/14 04:31:58;;;;;;;2.10;1.70;;;;;;;15.19;84.35;98973.71;109242;1274;138026;-64
2022/07/14 04:34:26;;;;;;;7.10;1.70;;;;;;;15.23;84.08;98974.41;109265;1274;22891;-64
2022/07/14 04:36:54;;;;;;;3.20;1.70;;;;;;;15.29;83.97;98980.68;109114;1274;138984;-65
2022/07/14 04:39:21;;;;;;;5.20;1.70;;;;;;;15.31;83.38;98982.83;109286;1274;22472;-64
2022/07/14 04:41:49;;;;;;;1.90;1.70;;;;;;;15.31;83.13;98983.92;109288;1274;22420;-64
2022/07/14 04:44:16;;;;;;;1.90;1.70;;;;;;;15.30;82.88;98980.66;109258;1274;137955;-64
2022/07/14 04:46:45;;;;;;;1.80;1.60;;;;;;;15.28;82.76;98980.57;109216;1274;22472;-63
2022/07/14 04:52:03;;;;;;;3.40;1.60;;;;;;;15.30;82.77;98992.67;109273;1274;22468;-64
2022/07/14 04:54:50;;;;;;;1.70;1.30;;;;;;;15.33;82.78;98992.23;109164;1276;138634;-64
2022/07/14 04:57:37;;;;;;;4.40;1.70;;;;;;;15.39;82.85;98997.68;109178;1274;22488;-64
2022/07/14 05:00:08;;;;;;;3.80;1.70;;;;;;;15.42;82.60;99003.38;109277;1274;23552;-64
2022/07/14 05:02:53;;;;;;;4.70;2.30;;;;;;;15.47;82.41;99006.15;109266;1275;23297;-64
2022/07/14 05:05:20;;;;;;;2.70;1.50;;;;;;;15.50;82.17;99009.71;109200;1277;22385;-64
2022/07/14 05:07:48;;;;;;;5.90;1.50;;;;;;;15.51;81.66;99011.19;108963;1276;138058;-64
2022/07/14 05:10:21;;;;;;;4.80;1.80;;;;;;;15.51;81.64;99017.88;109180;1276;22429;-64
2022/07/14 05:12:48;;;;;;;1.80;1.50;;;;;;;15.55;81.70;99019.21;109023;1277;138816;-64
2022/07/14 05:15:15;;;;;;;2.50;1.40;;;;;;;15.63;81.87;99017.85;109076;1276;22444;-64
2022/07/14 05:17:43;;;;;;;1.90;1.30;;;;;;;15.76;82.03;99016.23;109152;1276;23214;-64
2022/07/14 05:20:12;;;;;;;1.90;1.50;;;;;;;15.95;80.98;99016.84;109114;1276;137946;-64
2022/07/14 05:22:40;;;;;;;5.30;1.60;;;;;;;16.18;80.90;99012.35;109254;1276;22570;-64
2022/07/14 05:25:09;;;;;;;2.80;1.40;;;;;;;16.53;80.09;99006.75;109105;1277;139337;-64
2022/07/14 05:27:37;;;;;;;4.60;1.50;;;;;;;16.89;78.97;99018.86;109182;1276;22403;-64
2022/07/14 05:30:09;;;;;;;2.40;1.40;;;;;;;17.19;77.43;99020.39;109225;1277;23257;-64
2022/07/14 05:32:36;;;;;;;2.10;1.70;;;;;;;17.44;76.40;99020.64;109079;1277;139190;-64
2022/07/14 05:35:05;;;;;;;3.60;1.60;;;;;;;17.66;75.48;99020.85;109141;1277;24062;-64
2022/07/14 05:37:36;;;;;;;2.60;1.20;;;;;;;17.85;74.34;99022.48;107036;1277;138116;-64
2022/07/14 05:40:03;;;;;;;1.40;1.30;;;;;;;18.03;73.83;99023.09;109201;1275;23210;-64
2022/07/14 05:42:30;;;;;;;1.70;1.10;;;;;;;18.26;73.00;99025.92;109097;1276;138922;-64
2022/07/14 05:44:57;;;;;;;1.30;1.20;;;;;;;18.42;71.86;99025.98;109215;1276;23154;-64
2022/07/14 05:47:24;;;;;;;2.40;1.00;;;;;;;18.55;71.25;99026.08;109253;1275;23498;-64
2022/07/14 05:49:51;;;;;;;4.00;1.80;;;;;;;18.73;70.41;99021.46;109090;1277;139269;-64
2022/07/14 05:52:18;;;;;;;3.50;1.10;;;;;;;18.88;69.97;99022.88;109266;1277;22528;-64
2022/07/14 05:54:45;;;;;;;2.70;1.40;;;;;;;19.02;69.43;99020.36;109404;1277;139172;-66
2022/07/14 05:57:13;;;;;;;3.60;0.90;;;;;;;19.12;68.73;99023.08;108482;1277;25630;-64
2022/07/14 05:59:41;;;;;;;4.20;1.40;;;;;;;19.13;68.56;99023.70;105012;1277;22664;-64
2022/07/14 06:02:13;;;;;;;3.20;1.40;;;;;;;19.12;68.32;99021.98;104986;1277;138433;-64
2022/07/14 06:04:41;;;;;;;10.10;2.80;;;;;;;19.05;68.03;99022.83;104899;1277;24275;-64
2022/07/14 06:07:08;;;;;;;33.70;11.80;;;;;;;18.97;67.81;99027.32;104823;1274;138102;-64
2022/07/14 06:09:38;;;;;;;23.60;9.40;;;;;;;18.83;67.94;99027.80;109193;1277;22450;-65
2022/07/14 06:12:06;;;;;;;9.60;4.90;;;;;;;18.75;68.01;99027.64;109177;1276;22667;-64
2022/07/14 06:14:34;;;;;;;13.70;4.50;;;;;;;18.65;67.90;99027.27;109127;1276;139069;-65
2022/07/14 06:17:01;;;;;;;9.40;3.30;;;;;;;18.54;68.03;99030.69;109147;1277;23205;-66
2022/07/14 06:21:49;;;;;;;13.20;3.90;;;;;;;18.49;68.51;99030.23;101724;1310;545324;-64
2022/07/14 06:24:16;;;;;;;6.30;1.70;;;;;;;18.45;68.98;99030.50;104040;1284;23360;-65
2022/07/14 06:26:44;;;;;;;7.90;2.20;;;;;;;18.51;69.05;99027.52;107891;1288;137826;-65
2022/07/14 06:29:11;;;;;;;4.60;2.00;;;;;;;18.58;69.25;99031.09;107959;1288;22634;-65
2022/07/14 06:31:40;;;;;;;5.40;1.70;;;;;;;18.63;68.55;99030.25;107634;1289;138800;-65
2022/07/14 06:34:08;;;;;;;9.80;3.80;;;;;;;18.64;68.37;99031.10;107809;1289;22633;-66
2022/07/14 06:36:47;;;;;;;20.10;4.80;;;;;;;18.65;67.96;99033.89;107837;1286;139288;-65
2022/07/14 06:39:14;;;;;;;8.90;2.80;;;;;;;18.67;68.12;99031.17;108305;1286;22603;-66
2022/07/14 06:41:41;;;;;;;15.90;5.50;;;;;;;18.69;67.91;99033.71;108078;1286;22495;-66
2022/07/14 06:44:09;;;;;;;11.50;3.70;;;;;;;18.70;68.23;99035.01;107946;1286;137777;-65
2022/07/14 06:46:38;;;;;;;10.40;3.30;;;;;;;18.74;67.91;99038.03;108051;1285;22548;-65
2022/07/14 06:49:05;;;;;;;4.10;2.00;;;;;;;18.79;68.00;99032.89;107847;1285;138704;-65
2022/07/14 06:51:32;;;;;;;5.10;1.20;;;;;;;18.84;68.17;99036.67;107943;1286;22460;-66
2022/07/14 06:53:58;;;;;;;2.50;1.10;;;;;;;18.92;68.43;99036.71;108052;1286;22473;-66
2022/07/14 06:56:25;;;;;;;2.10;1.20;;;;;;;18.98;68.41;99035.89;108144;1286;137883;-64
2022/07/14 06:58:52;;;;;;;6.60;1.20;;;;;;;19.04;68.15;99034.65;108270;1285;24202;-65
2022/07/14 07:01:19;;;;;;;2.80;1.40;;;;;;;19.09;67.59;99033.99;108150;1285;139664;-65
2022/07/14 07:03:46;;;;;;;2.70;1.20;;;;;;;19.11;67.43;99034.75;108247;1286;22261;-65
2022/07/14 07:08:58;;;;;;;3.80;1.20;;;;;;;19.15;66.32;99041.64;108175;1286;22484;-66
2022/07/14 07:11:45;;;;;;;2.40;1.20;;;;;;;19.15;65.93;99039.34;108271;1285;23586;-64
2022/07/14 07:14:12;;;;;;;2.10;1.70;;;;;;;19.18;66.01;99040.89;108137;1285;138600;-65
2022/07/14 07:16:39;;;;;;;7.80;1.30;;;;;;;19.23;66.09;99045.30;108199;1286;23309;-66
2022/07/14 07:19:06;;;;;;;2.40;1.10;;;;;;;19.29;65.89;99043.84;108186;1286;137650;-65
2022/07/14 07:21:32;;;;;;;1.70;1.30;;;;;;;19.34;65.29;99045.08;106632;1287;25287;-64
2022/07/14 07:23:59;;;;;;;2.80;1.10;;;;;;;19.38;64.93;99049.37;103856;1286;22570;-65
2022/07/14 07:26:26;;;;;;;2.50;1.20;;;;;;;19.41;64.66;99049.83;103782;1286;137247;-65
2022/07/14 07:28:54;;;;;;;0.90;0.90;;;;;;;19.45;64.38;99048.88;103984;1286;22563;-65
2022/07/14 07:31:29;;;;;;;4.40;1.20;;;;;;;19.44;63.66;99049.08;103706;1287;137984;-65
2022/07/14 07:33:56;;;;;;;2.70;1.20;;;;;;;19.41;64.65;99049.27;108257;1286;22482;-65
2022/07/14 07:36:23;;;;;;;6.10;1.20;;;;;;;19.44;64.37;99054.16;108078;1286;139747;-65
2022/07/14 07:38:51;;;;;;;5.20;1.50;;;;;;;19.49;64.56;99050.15;108280;1286;22559;-65
2022/07/14 07:41:18;;;;;;;1.20;0.90;;;;;;;19.54;64.48;99038.16;108173;1286;22472;-65
2022/07/14 07:43:45;;;;;;;4.20;1.10;;;;;;;19.59;64.35;99040.92;107925;1287;137797;-66
2022/07/14 07:46:12;;;;;;;2.10;1.10;;;;;;;19.62;64.51;99039.08;108260;1286;23511;-65
2022/07/14 07:48:39;;;;;;;2.30;1.20;;;;;;;19.63;64.32;99036.83;107924;1286;139752;-65
2022/07/14 07:51:07;;;;;;;4.70;1.30;;;;;;;19.65;64.73;99035.55;108183;1286;22464;-65
2022/07/14 07:53:35;;;;;;;2.30;1.40;;;;;;;19.70;65.37;99033.83;108343;1285;23255;-66
2022/07/14 07:56:02;;;;;;;2.60;1.20;;;;;;;19.80;65.30;99040.31;108228;1286;139370;-65
2022/07/14 07:58:29;;;;;;;1.50;1.40;;;;;;;19.89;64.41;99043.70;108919;1279;22469;-65
2022/07/14 08:00:56;;;;;;;2.50;1.70;;;;;;;19.95;64.65;99043.13;108882;1277;137282;-65
2022/07/14 08:03:23;;;;;;;2.20;1.40;;;;;;;20.03;65.27;99047.69;108998;1277;22444;-64
2022/07/14 08:05:50;;;;;;;2.10;1.40;;;;;;;20.14;65.58;99046.95;109075;1277;23085;-65
2022/07/14 08:08:37;;;;;;;2.50;1.10;;;;;;;20.29;65.01;99046.75;108898;1278;138600;-66
2022/07/14 08:11:04;;;;;;;4.30;1.20;;;;;;;20.39;63.58;99046.88;109011;1278;22542;-64
2022/07/14 08:13:31;;;;;;;3.60;1.50;;;;;;;20.46;62.83;99043.21;108908;1278;136938;-64
2022/07/14 08:15:59;;;;;;;3.60;1.50;;;;;;;20.50;62.47;99046.84;108998;1278;23315;-65
2022/07/14 08:18:26;;;;;;;2.90;1.40;;;;;;;20.52;62.35;99045.40;108898;1277;138948;-64
2022/07/14 08:20:53;;;;;;;2.00;1.30;;;;;;;20.52;63.02;99047.32;109037;1277;23012;-65
2022/07/14 08:23:20;;;;;;;2.00;1.50;;;;;;;20.53;62.58;99049.11;109080;1277;23231;-65
2022/07/14 08:25:46;;;;;;;2.20;1.50;;;;;;;20.51;62.90;99055.96;108926;1277;137528;-65
2022/07/14 08:28:13;;;;;;;3.50;1.20;;;;;;;20.50;63.42;99050.45;108652;1277;22445;-65
2022/07/14 08:30:40;;;;;;;6.10;1.30;;;;;;;20.50;63.52;99051.92;108473;1278;137745;-66
2022/07/14 08:33:08;;;;;;;3.70;1.20;;;;;;;20.51;62.89;99050.69;106953;1277;22555;-64
2022/07/14 08:35:35;;;;;;;4.10;1.20;;;;;;;20.50;62.42;99052.84;106850;1278;24343;-65
2022/07/14 08:38:02;;;;;;;1.60;1.40;;;;;;;20.47;62.44;99049.19;106825;1278;140252;-64
2022/07/14 08:40:37;;;;;;;2.70;1.30;;;;;;;20.52;62.70;99051.10;106932;1278;25040;-65
2022/07/14 08:43:04;;;;;;;4.30;1.70;;;;;;;20.55;62.61;99051.15;106750;1278;138581;-64
2022/07/14 08:45:35;;;;;;;3.50;1.20;;;;;;;20.59;62.92;99050.23;106986;1277;23421;-64
2022/07/14 08:48:02;;;;;;;1.10;1.10;;;;;;;20.67;62.54;99057.61;106829;1280;22395;-64
2022/07/14 08:50:29;;;;;;;1.10;1.10;;;;;;;20.72;62.64;99059.67;106696;1278;137956;-65
2022/07/14 08:52:55;;;;;;;2.70;1.70;;;;;;;20.77;62.88;99060.42;106978;1278;23479;-65
2022/07/14 08:55:22;;;;;;;2.90;1.50;;;;;;;20.82;63.05;99057.84;106876;1280;138873;-64
2022/07/14 08:57:49;;;;;;;2.40;1.30;;;;;;;20.88;62.28;99058.84;107287;1278;23985;-65
2022/07/14 09:00:17;;;;;;;3.10;1.50;;;;;;;20.92;61.50;99057.25;107177;1280;23690;-64
2022/07/14 09:02:49;;;;;;;2.00;1.10;;;;;;;20.96;61.38;99058.35;107011;1280;137244;-64
2022/07/14 09:05:41;;;;;;;3.20;2.10;;;;;;;20.97;61.35;99058.34;107122;1280;22511;-64
2022/07/14 09:08:09;;;;;;;1.50;1.40;;;;;;;21.01;61.09;99055.61;107115;1277;137963;-64
2022/07/14 09:10:36;;;;;;;1.20;1.10;;;;;;;21.03;60.43;99055.31;107271;1279;22491;-64
2022/07/14 09:13:24;;;;;;;3.20;1.40;;;;;;;21.08;60.56;99061.97;106855;1278;138149;-65
2022/07/14 09:16:11;;;;;;;2.70;1.30;;;;;;;21.10;60.96;99061.36;107231;1280;23206;-65
2022/07/14 09:18:39;;;;;;;1.30;1.20;;;;;;;21.11;60.91;99058.00;106761;1280;141388;-65
2022/07/14 09:21:18;;;;;;;2.30;1.40;;;;;;;21.15;61.35;99066.38;106960;1280;22491;-63
2022/07/14 09:23:45;;;;;;;2.40;1.40;;;;;;;21.19;60.97;99066.80;107145;1278;22462;-63
2022/07/14 09:26:21;;;;;;;2.20;1.80;;;;;;;21.22;60.95;99065.76;107051;1280;138503;-63
2022/07/14 09:28:49;;;;;;;2.20;1.80;;;;;;;21.28;61.07;99066.46;107025;1280;23042;-64
2022/07/14 09:31:22;;;;;;;4.40;1.80;;;;;;;21.33;60.87;99068.02;106707;1280;137731;-64
2022/07/14 09:33:55;;;;;;;3.60;1.70;;;;;;;21.38;60.73;99068.83;106922;1278;23209;-65
2022/07/14 09:36:29;;;;;;;1.60;1.50;;;;;;;21.40;60.27;99064.88;107153;1277;138125;-64
2022/07/14 09:39:04;;;;;;;5.70;1.50;;;;;;;21.38;60.16;99073.23;107247;1279;22448;-64
2022/07/14 09:41:50;;;;;;;2.60;2.10;;;;;;;21.33;60.70;99072.84;107034;1280;23266;-64
2022/07/14 09:44:18;;;;;;;4.90;1.90;;;;;;;21.34;60.74;99075.65;106934;1277;138832;-64
2022/07/14 09:46:49;;;;;;;2.30;2.00;;;;;;;21.33;60.63;99074.05;105083;1280;22602;-63
2022/07/14 09:49:16;;;;;;;3.20;1.90;;;;;;;21.36;60.16;99073.73;103749;1280;138565;-64
2022/07/14 09:52:05;;;;;;;4.60;2.20;;;;;;;21.39;59.76;99065.61;103830;1280;22602;-64
2022/07/14 09:54:43;;;;;;;4.10;1.90;;;;;;;21.48;60.14;99070.05;103825;1280;138847;-63
2022/07/14 09:57:13;;;;;;;4.60;1.90;;;;;;;21.54;59.79;99068.84;103952;1280;23789;-64
2022/07/14 09:59:47;;;;;;;2.30;2.00;;;;;;;21.56;58.92;99076.69;103781;1280;27209;-64
2022/07/14 10:02:21;;;;;;;2.60;1.90;;;;;;;21.54;59.06;99074.00;103689;1280;137846;-65
2022/07/14 10:04:49;;;;;;;2.50;2.00;;;;;;;21.55;59.53;99076.17;103628;1280;24986;-65
2022/07/14 10:07:17;;;;;;;3.80;1.70;;;;;;;21.59;59.61;99077.36;103556;1280;137856;-64
2022/07/14 10:10:07;;;;;;;2.90;1.70;;;;;;;21.62;59.42;99079.17;103639;1280;25560;-64
2022/07/14 10:12:36;;;;;;;3.00;1.70;;;;;;;21.64;59.09;99076.08;103684;1280;138531;-64
2022/07/14 10:15:09;;;;;;;3.50;2.10;;;;;;;21.64;59.34;99073.02;103707;1280;25643;-64
2022/07/14 10:17:37;;;;;;;2.70;1.80;;;;;;;21.65;59.74;99071.92;103750;1280;22575;-65
2022/07/14 10:20:06;;;;;;;3.70;1.90;;;;;;;21.64;59.62;99073.31;103630;1280;139187;-65
2022/07/14 10:22:33;;;;;;;3.90;2.30;;;;;;;21.62;59.33;99076.22;103550;1280;22843;-64
2022/07/14 10:25:00;;;;;;;4.40;2.10;;;;;;;21.58;59.16;99077.33;103704;1280;137534;-65
2022/07/14 10:27:38;;;;;;;2.30;2.00;;;;;;;21.57;59.61;99078.45;103943;1280;22720;-64
2022/07/14 10:30:06;;;;;;;2.50;2.00;;;;;;;21.62;60.25;99077.45;103752;1280;22732;-64
2022/07/14 10:32:33;;;;;;;3.20;1.80;;;;;;;21.70;59.94;99080.66;103582;1280;138251;-65
2022/07/14 10:35:03;;;;;;;1.90;1.80;;;;;;;21.78;59.23;99082.63;103746;1280;27576;-65
2022/07/14 10:37:36;;;;;;;2.80;2.00;;;;;;;21.84;59.12;99074.13;103628;1280;138759;-63
2022/07/14 10:40:33;;;;;;;2.30;2.10;;;;;;;21.91;59.25;99071.02;103619;1279;22579;-64
2022/07/14 10:43:05;;;;;;;3.60;2.00;;;;;;;22.02;59.41;99068.48;103488;1280;139008;-64
2022/07/14 10:45:50;;;;;;;7.10;2.40;;;;;;;22.11;59.59;99068.48;103586;1280;23954;-67
2022/07/14 10:48:31;;;;;;;6.30;2.00;;;;;;;22.24;58.16;99062.66;103891;1280;22782;-67
2022/07/14 10:51:21;;;;;;;2.70;2.20;;;;;;;22.39;57.16;99069.71;104127;1280;27892;-67
2022/07/14 10:54:08;;;;;;;16.50;2.80;;;;;;;22.51;56.62;99075.28;104122;1280;25161;-67
2022/07/14 10:57:09;;;;;;;4.00;2.00;;;;;;;22.56;55.62;99073.45;104021;1280;23489;-68
2022/07/14 10:59:37;;;;;;;5.30;2.00;;;;;;;22.55;55.22;99071.50;107195;1280;24043;-68
2022/07/14 11:02:10;;;;;;;4.30;2.20;;;;;;;22.53;55.60;99074.23;107050;1280;139634;-68
2022/07/14 11:05:11;;;;;;;3.40;2.20;;;;;;;22.53;56.37;99070.98;107249;1280;23917;-68
2022/07/14 11:07:47;;;;;;;5.00;2.00;;;;;;;22.59;56.40;99069.75;107147;1279;138508;-68
2022/07/14 11:10:14;;;;;;;3.10;1.90;;;;;;;22.65;56.51;99065.55;107302;1278;22460;-67
2022/07/14 11:13:04;;;;;;;5.40;1.90;;;;;;;22.71;56.10;99064.64;107196;1280;139232;-64
2022/07/14 11:16:03;;;;;;;5.10;1.80;;;;;;;22.75;55.51;99061.38;107088;1280;22540;-65
2022/07/14 11:18:42;;;;;;;5.00;2.30;;;;;;;22.83;56.50;99060.90;107043;1280;139065;-67
2022/07/14 11:21:17;;;;;;;3.60;2.10;;;;;;;22.92;55.21;99055.95;107038;1280;22476;-71
2022/07/14 11:23:50;;;;;;;2.50;1.70;;;;;;;23.04;54.61;99065.44;107079;1280;22544;-70
2022/07/14 11:26:32;;;;;;;2.90;1.70;;;;;;;23.13;53.85;99059.59;106864;1280;138576;-64
2022/07/14 11:28:59;;;;;;;3.70;2.30;;;;;;;23.22;53.52;99060.02;106970;1280;22468;-64
2022/07/14 11:31:26;;;;;;;3.80;2.20;;;;;;;23.29;53.57;99059.02;106859;1279;140725;-66
2022/07/14 11:37:02;;;;;;;3.40;2.00;;;;;;;23.48;52.00;99058.68;106851;1280;138427;-64
2022/07/14 11:39:49;;;;;;;3.60;2.20;;;;;;;23.60;52.20;99057.92;106832;1280;24931;-63
2022/07/14 11:42:17;;;;;;;2.90;2.20;;;;;;;23.64;51.99;99050.56;107005;1279;22419;-62
2022/07/14 11:44:45;;;;;;;3.90;1.90;;;;;;;23.70;51.79;99051.77;106847;1280;138210;-63
2022/07/14 11:47:17;;;;;;;2.70;2.00;;;;;;;23.74;51.80;99048.77;107013;1280;22512;-63
2022/07/14 11:50:03;;;;;;;3.40;2.10;;;;;;;23.80;51.73;99049.27;106828;1280;138706;-65